sensor_id;sensor_type;location;lat;lon;timestamp;pressure;altitude;pressure_sealevel;temperature;humidity
19789;BME280;10054;59.332;18.244;2022-10-14T00:01:24;100792.13;;;9.23;100.00
19789;BME280;10054;59.332;18.244;2022-10-14T00:03:54;100789.27;;;9.19;100.00
19789;BME280;10054;59.332;18.244;2022-10-14T00:06:26;100787.83;;;9.13;100.00
19789;BME280;10054;59.332;18.244;2022-10-14T00:08:55;100787.14;;;9.10;100.00
19789;BME280;10054;59.332;18.244;2022-10-14T00:11:27;100788.62;;;9.07;100.00
19789;BME280;10054;59.332;18.244;2022-10-14T00:13:58;100781.73;;;9.04;100.00
19789;BME280;10054;59.332;18.244;2022-10-14T00:16:30;100783.90;;;9.05;100.00
19789;BME280;10054;59.332;18.244;2022-10-14T00:19:00;100779.87;;;9.06;100.00
19789;BME280;10054;59.332;18.244;2022-10-14T00:21:29;100781.19;;;9.06;100.00
19789;BME280;10054;59.332;18.244;2022-10-14T00:23:59;100779.95;;;9.05;100.00
19789;BME280;10054;59.332;18.244;2022-10-14T00:26:30;100785.98;;;9.07;100.00
19789;BME280;10054;59.332;18.244;2022-10-14T00:29:00;100785.60;;;9.06;100.00
19789;BME280;10054;59.332;18.244;2022-10-14T00:31:31;100780.42;;;9.04;100.00
19789;BME280;10054;59.332;18.244;2022-10-14T00:34:00;100779.66;;;9.02;100.00
19789;BME280;10054;59.332;18.244;2022-10-14T00:36:29;100773.84;;;9.04;100.00
19789;BME280;10054;59.332;18.244;2022-10-14T00:38:58;100774.99;;;9.07;100.00
19789;BME280;10054;59.332;18.244;2022-10-14T00:41:29;100769.27;;;9.08;100.00
19789;BME280;10054;59.332;18.244;2022-10-14T00:46:47;100762.52;;;9.11;100.00
19789;BME280;10054;59.332;18.244;2022-10-14T00:49:23;100761.37;;;9.08;100.00
19789;BME280;10054;59.332;18.244;2022-10-14T00:52:08;100761.20;;;9.11;100.00
19789;BME280;10054;59.332;18.244;2022-10-14T00:54:35;100756.79;;;9.11;100.00
19789;BME280;10054;59.332;18.244;2022-10-14T00:57:05;100762.05;;;9.11;100.00
19789;BME280;10054;59.332;18.244;2022-10-14T00:59:34;100757.50;;;9.06;100.00
19789;BME280;10054;59.332;18.244;2022-10-14T01:02:03;100753.34;;;9.02;100.00
19789;BME280;10054;59.332;18.244;2022-10-14T01:04:33;100745.61;;;8.99;100.00
19789;BME280;10054;59.332;18.244;2022-10-14T01:10:00;100751.12;;;8.95;100.00
19789;BME280;10054;59.332;18.244;2022-10-14T01:12:54;100754.41;;;8.91;100.00
19789;BME280;10054;59.332;18.244;2022-10-14T01:15:34;100757.59;;;8.89;100.00
19789;BME280;10054;59.332;18.244;2022-10-14T01:21:00;100744.45;;;8.80;100.00
19789;BME280;10054;59.332;18.244;2022-10-14T01:24:06;100753.52;;;8.75;100.00
19789;BME280;10054;59.332;18.244;2022-10-14T01:32:56;100748.36;;;8.65;100.00
19789;BME280;10054;59.332;18.244;2022-10-14T01:35:28;100747.05;;;8.65;100.00
19789;BME280;10054;59.332;18.244;2022-10-14T01:38:02;100746.66;;;8.64;100.00
19789;BME280;10054;59.332;18.244;2022-10-14T01:40:58;100754.55;;;8.64;100.00
19789;BME280;10054;59.332;18.244;2022-10-14T01:43:28;100755.40;;;8.64;100.00
19789;BME280;10054;59.332;18.244;2022-10-14T01:45:59;100751.84;;;8.65;100.00
19789;BME280;10054;59.332;18.244;2022-10-14T01:48:34;100750.98;;;8.65;100.00
19789;BME280;10054;59.332;18.244;2022-10-14T01:51:06;100749.67;;;8.65;100.00
19789;BME280;10054;59.332;18.244;2022-10-14T01:53:43;100743.48;;;8.66;100.00
19789;BME280;10054;59.332;18.244;2022-10-14T01:56:14;100742.25;;;8.64;100.00
19789;BME280;10054;59.332;18.244;2022-10-14T01:58:45;100736.69;;;8.62;100.00
19789;BME280;10054;59.332;18.244;2022-10-14T02:01:16;100737.61;;;8.61;100.00
19789;BME280;10054;59.332;18.244;2022-10-14T02:03:46;100737.61;;;8.61;100.00
19789;BME280;10054;59.332;18.244;2022-10-14T02:06:27;100736.30;;;8.61;100.00
19789;BME280;10054;59.332;18.244;2022-10-14T02:09:10;100733.28;;;8.60;100.00
19789;BME280;10054;59.332;18.244;2022-10-14T02:17:12;100727.80;;;8.55;100.00
19789;BME280;10054;59.332;18.244;2022-10-14T02:20:30;100735.77;;;8.54;100.00
19789;BME280;10054;59.332;18.244;2022-10-14T02:22:26;100732.53;;;8.49;100.00
19789;BME280;10054;59.332;18.244;2022-10-14T02:24:58;100735.94;;;8.42;100.00
19789;BME280;10054;59.332;18.244;2022-10-14T02:27:28;100733.94;;;8.39;100.00
19789;BME280;10054;59.332;18.244;2022-10-14T02:29:59;100731.00;;;8.36;100.00
19789;BME280;10054;59.332;18.244;2022-10-14T02:32:31;100735.09;;;8.33;100.00
19789;BME280;10054;59.332;18.244;2022-10-14T02:35:03;100734.30;;;8.31;100.00
19789;BME280;10054;59.332;18.244;2022-10-14T02:37:32;100736.61;;;8.29;100.00
19789;BME280;10054;59.332;18.244;2022-10-14T02:40:08;100733.22;;;8.27;100.00
19789;BME280;10054;59.332;18.244;2022-10-14T02:42:37;100738.01;;;8.27;100.00
19789;BME280;10054;59.332;18.244;2022-10-14T02:45:07;100737.08;;;8.28;100.00
19789;BME280;10054;59.332;18.244;2022-10-14T02:47:38;100727.42;;;8.29;100.00
19789;BME280;10054;59.332;18.244;2022-10-14T02:50:07;100730.30;;;8.33;100.00
19789;BME280;10054;59.332;18.244;2022-10-14T02:52:36;100723.66;;;8.34;100.00
19789;BME280;10054;59.332;18.244;2022-10-14T02:55:05;100723.42;;;8.39;100.00
19789;BME280;10054;59.332;18.244;2022-10-14T02:57:34;100724.96;;;8.43;100.00
19789;BME280;10054;59.332;18.244;2022-10-14T03:00:04;100720.94;;;8.44;100.00
19789;BME280;10054;59.332;18.244;2022-10-14T03:02:34;100711.19;;;8.46;100.00
19789;BME280;10054;59.332;18.244;2022-10-14T03:05:04;100713.66;;;8.49;100.00
19789;BME280;10054;59.332;18.244;2022-10-14T03:07:32;100709.56;;;8.52;100.00
19789;BME280;10054;59.332;18.244;2022-10-14T03:10:03;100707.78;;;8.53;100.00
19789;BME280;10054;59.332;18.244;2022-10-14T03:12:34;100706.84;;;8.54;100.00
19789;BME280;10054;59.332;18.244;2022-10-14T03:15:03;100699.73;;;8.56;100.00
19789;BME280;10054;59.332;18.244;2022-10-14T03:17:34;100697.02;;;8.58;100.00
19789;BME280;10054;59.332;18.244;2022-10-14T03:20:05;100697.56;;;8.55;100.00
19789;BME280;10054;59.332;18.244;2022-10-14T03:22:35;100695.78;;;8.56;100.00
19789;BME280;10054;59.332;18.244;2022-10-14T03:25:06;100687.52;;;8.55;100.00
19789;BME280;10054;59.332;18.244;2022-10-14T03:27:36;100689.30;;;8.54;100.00
19789;BME280;10054;59.332;18.244;2022-10-14T03:30:07;100686.28;;;8.53;100.00
19789;BME280;10054;59.332;18.244;2022-10-14T03:32:38;100688.06;;;8.53;100.00
19789;BME280;10054;59.332;18.244;2022-10-14T03:35:09;100691.70;;;8.50;100.00
19789;BME280;10054;59.332;18.244;2022-10-14T03:37:37;100690.08;;;8.48;100.00
19789;BME280;10054;59.332;18.244;2022-10-14T03:40:08;100687.06;;;8.47;100.00
19789;BME280;10054;59.332;18.244;2022-10-14T03:42:37;100681.89;;;8.45;100.00
19789;BME280;10054;59.332;18.244;2022-10-14T03:45:07;100693.72;;;8.45;100.00
19789;BME280;10054;59.332;18.244;2022-10-14T03:47:37;100689.86;;;8.44;100.00
19789;BME280;10054;59.332;18.244;2022-10-14T03:50:06;100686.77;;;8.44;100.00
19789;BME280;10054;59.332;18.244;2022-10-14T03:52:40;100675.86;;;8.43;100.00
19789;BME280;10054;59.332;18.244;2022-10-14T03:55:14;100682.05;;;8.42;100.00
19789;BME280;10054;59.332;18.244;2022-10-14T03:57:43;100681.50;;;8.44;100.00
19789;BME280;10054;59.332;18.244;2022-10-14T04:00:13;100677.02;;;8.46;100.00
19789;BME280;10054;59.332;18.244;2022-10-14T04:02:41;100667.66;;;8.49;100.00
19789;BME280;10054;59.332;18.244;2022-10-14T04:05:14;100662.39;;;8.49;100.00
19789;BME280;10054;59.332;18.244;2022-10-14T04:07:44;100666.25;;;8.51;100.00
19789;BME280;10054;59.332;18.244;2022-10-14T04:10:13;100665.79;;;8.51;100.00
19789;BME280;10054;59.332;18.244;2022-10-14T04:12:43;100668.97;;;8.49;100.00
19789;BME280;10054;59.332;18.244;2022-10-14T04:15:14;100661.24;;;8.46;100.00
19789;BME280;10054;59.332;18.244;2022-10-14T04:17:44;100664.80;;;8.45;100.00
19789;BME280;10054;59.332;18.244;2022-10-14T04:20:15;100656.91;;;8.45;100.00
19789;BME280;10054;59.332;18.244;2022-10-14T04:22:45;100654.37;;;8.44;100.00
19789;BME280;10054;59.332;18.244;2022-10-14T04:25:15;100650.97;;;8.42;100.00
19789;BME280;10054;59.332;18.244;2022-10-14T04:27:46;100653.67;;;8.40;100.00
19789;BME280;10054;59.332;18.244;2022-10-14T04:30:15;100651.21;;;8.37;100.00
19789;BME280;10054;59.332;18.244;2022-10-14T04:32:45;100643.10;;;8.33;100.00
19789;BME280;10054;59.332;18.244;2022-10-14T04:35:16;100648.83;;;8.33;100.00
19789;BME280;10054;59.332;18.244;2022-10-14T04:37:46;100652.30;;;8.33;100.00
19789;BME280;10054;59.332;18.244;2022-10-14T04:40:25;100648.28;;;8.35;100.00
19789;BME280;10054;59.332;18.244;2022-10-14T04:42:55;100644.47;;;8.32;100.00
19789;BME280;10054;59.332;18.244;2022-10-14T04:45:26;100644.93;;;8.31;100.00
19789;BME280;10054;59.332;18.244;2022-10-14T04:47:56;100642.17;;;8.34;100.00
19789;BME280;10054;59.332;18.244;2022-10-14T04:50:26;100640.98;;;8.31;100.00
19789;BME280;10054;59.332;18.244;2022-10-14T04:53:12;100644.93;;;8.31;100.00
19789;BME280;10054;59.332;18.244;2022-10-14T04:55:44;100647.56;;;8.31;100.00
19789;BME280;10054;59.332;18.244;2022-10-14T04:58:16;100645.86;;;8.30;100.00
19789;BME280;10054;59.332;18.244;2022-10-14T05:00:46;100636.74;;;8.29;100.00
19789;BME280;10054;59.332;18.244;2022-10-14T05:03:31;100640.30;;;8.28;100.00
19789;BME280;10054;59.332;18.244;2022-10-14T05:06:00;100640.77;;;8.27;100.00
19789;BME280;10054;59.332;18.244;2022-10-14T05:08:29;100635.59;;;8.25;100.00
19789;BME280;10054;59.332;18.244;2022-10-14T05:11:00;100639.61;;;8.24;100.00
19789;BME280;10054;59.332;18.244;2022-10-14T05:13:42;100638.68;;;8.25;100.00
19789;BME280;10054;59.332;18.244;2022-10-14T05:16:11;100634.36;;;8.24;100.00
19789;BME280;10054;59.332;18.244;2022-10-14T05:18:41;100637.45;;;8.23;100.00
19789;BME280;10054;59.332;18.244;2022-10-14T05:21:11;100631.34;;;8.23;100.00
19789;BME280;10054;59.332;18.244;2022-10-14T05:23:42;100642.32;;;8.22;100.00
19789;BME280;10054;59.332;18.244;2022-10-14T05:26:12;100631.70;;;8.17;100.00
19789;BME280;10054;59.332;18.244;2022-10-14T05:28:41;100638.73;;;8.16;100.00
19789;BME280;10054;59.332;18.244;2022-10-14T05:31:10;100632.02;;;8.11;100.00
19789;BME280;10054;59.332;18.244;2022-10-14T05:33:40;100634.11;;;8.04;100.00
19789;BME280;10054;59.332;18.244;2022-10-14T05:36:10;100639.14;;;8.00;100.00
19789;BME280;10054;59.332;18.244;2022-10-14T05:38:38;100632.42;;;7.95;100.00
19789;BME280;10054;59.332;18.244;2022-10-14T05:41:09;100630.73;;;7.85;100.00
19789;BME280;10054;59.332;18.244;2022-10-14T05:43:38;100636.60;;;7.81;100.00
19789;BME280;10054;59.332;18.244;2022-10-14T05:46:07;100631.04;;;7.79;100.00
19789;BME280;10054;59.332;18.244;2022-10-14T05:48:37;100627.10;;;7.70;100.00
19789;BME280;10054;59.332;18.244;2022-10-14T05:51:06;100630.80;;;7.66;100.00
19789;BME280;10054;59.332;18.244;2022-10-14T05:53:36;100629.65;;;7.63;100.00
19789;BME280;10054;59.332;18.244;2022-10-14T05:56:08;100632.27;;;7.54;100.00
19789;BME280;10054;59.332;18.244;2022-10-14T05:58:38;100629.33;;;7.52;100.00
19789;BME280;10054;59.332;18.244;2022-10-14T06:01:09;100628.56;;;7.50;100.00
19789;BME280;10054;59.332;18.244;2022-10-14T06:03:40;100627.27;;;7.41;100.00
19789;BME280;10054;59.332;18.244;2022-10-14T06:06:16;100629.58;;;7.39;100.00
19789;BME280;10054;59.332;18.244;2022-10-14T06:08:41;100636.99;;;7.39;100.00
19789;BME280;10054;59.332;18.244;2022-10-14T06:11:11;100635.76;;;7.38;100.00
19789;BME280;10054;59.332;18.244;2022-10-14T06:13:39;100635.76;;;7.38;100.00
19789;BME280;10054;59.332;18.244;2022-10-14T06:16:09;100633.05;;;7.39;100.00
19789;BME280;10054;59.332;18.244;2022-10-14T06:18:38;100635.30;;;7.38;100.00
19789;BME280;10054;59.332;18.244;2022-10-14T06:21:09;100636.14;;;7.39;100.00
19789;BME280;10054;59.332;18.244;2022-10-14T06:23:39;100636.99;;;7.39;100.00
19789;BME280;10054;59.332;18.244;2022-10-14T06:26:08;100635.61;;;7.41;100.00
19789;BME280;10054;59.332;18.244;2022-10-14T06:28:37;100645.92;;;7.44;100.00
19789;BME280;10054;59.332;18.244;2022-10-14T06:31:05;100637.90;;;7.47;100.00
19789;BME280;10054;59.332;18.244;2022-10-14T06:33:34;100635.51;;;7.51;100.00
19789;BME280;10054;59.332;18.244;2022-10-14T06:36:04;100636.75;;;7.52;100.00
19789;BME280;10054;59.332;18.244;2022-10-14T06:38:34;100637.37;;;7.57;100.00
19789;BME280;10054;59.332;18.244;2022-10-14T06:41:03;100632.27;;;7.63;100.00
19789;BME280;10054;59.332;18.244;2022-10-14T06:43:31;100632.73;;;7.71;100.00
19789;BME280;10054;59.332;18.244;2022-10-14T06:46:02;100634.90;;;7.80;100.00
19789;BME280;10054;59.332;18.244;2022-10-14T06:48:31;100628.88;;;7.87;100.00
19789;BME280;10054;59.332;18.244;2022-10-14T06:51:01;100635.44;;;7.96;100.00
19789;BME280;10054;59.332;18.244;2022-10-14T06:53:29;100634.27;;;8.01;100.00
19789;BME280;10054;59.332;18.244;2022-10-14T06:56:00;100639.67;;;8.07;100.00
19789;BME280;10054;59.332;18.244;2022-10-14T06:58:30;100630.00;;;8.16;100.00
19789;BME280;10054;59.332;18.244;2022-10-14T07:01:04;100633.89;;;8.24;100.00
19789;BME280;10054;59.332;18.244;2022-10-14T07:03:39;100636.06;;;8.34;100.00
19789;BME280;10054;59.332;18.244;2022-10-14T07:06:08;100641.22;;;8.44;100.00
19789;BME280;10054;59.332;18.244;2022-10-14T07:08:37;100631.14;;;8.52;100.00
19789;BME280;10054;59.332;18.244;2022-10-14T07:11:06;100634.13;;;8.62;100.00
19789;BME280;10054;59.332;18.244;2022-10-14T07:13:36;100635.88;;;8.70;100.00
19789;BME280;10054;59.332;18.244;2022-10-14T07:16:07;100632.36;;;8.78;100.00
19789;BME280;10054;59.332;18.244;2022-10-14T07:18:36;100634.48;;;8.87;100.00
19789;BME280;10054;59.332;18.244;2022-10-14T07:21:05;100632.63;;;8.96;100.00
19789;BME280;10054;59.332;18.244;2022-10-14T07:23:34;100627.80;;;9.04;100.00
19789;BME280;10054;59.332;18.244;2022-10-14T07:26:03;100625.96;;;9.13;100.00
19789;BME280;10054;59.332;18.244;2022-10-14T07:28:32;100626.76;;;9.22;100.00
19789;BME280;10054;59.332;18.244;2022-10-14T07:31:04;100621.53;;;9.30;100.00
19789;BME280;10054;59.332;18.244;2022-10-14T07:33:34;100618.38;;;9.39;100.00
19789;BME280;10054;59.332;18.244;2022-10-14T07:36:04;100625.73;;;9.48;100.00
19789;BME280;10054;59.332;18.244;2022-10-14T07:38:34;100616.55;;;9.55;100.00
19789;BME280;10054;59.332;18.244;2022-10-14T07:41:05;100617.70;;;9.65;100.00
19789;BME280;10054;59.332;18.244;2022-10-14T07:43:34;100615.81;;;9.74;100.00
19789;BME280;10054;59.332;18.244;2022-10-14T07:46:04;100613.20;;;9.81;100.00
19789;BME280;10054;59.332;18.244;2022-10-14T07:48:34;100617.25;;;9.87;100.00
19789;BME280;10054;59.332;18.244;2022-10-14T07:51:04;100611.91;;;9.96;100.00
19789;BME280;10054;59.332;18.244;2022-10-14T07:53:35;100614.45;;;10.04;100.00
19789;BME280;10054;59.332;18.244;2022-10-14T07:56:04;100610.52;;;10.11;100.00
19789;BME280;10054;59.332;18.244;2022-10-14T07:58:33;100619.27;;;10.19;100.00
19789;BME280;10054;59.332;18.244;2022-10-14T08:01:02;100617.14;;;10.26;100.00
19789;BME280;10054;59.332;18.244;2022-10-14T08:03:30;100618.19;;;10.30;100.00
19789;BME280;10054;59.332;18.244;2022-10-14T08:06:01;100624.49;;;10.35;100.00
19789;BME280;10054;59.332;18.244;2022-10-14T08:08:31;100620.59;;;10.40;100.00
19789;BME280;10054;59.332;18.244;2022-10-14T08:11:03;100618.43;;;10.47;100.00
19789;BME280;10054;59.332;18.244;2022-10-14T08:13:33;100625.49;;;10.53;100.00
19789;BME280;10054;59.332;18.244;2022-10-14T08:16:02;100626.34;;;10.61;100.00
19789;BME280;10054;59.332;18.244;2022-10-14T08:18:31;100620.11;;;10.69;100.00
19789;BME280;10054;59.332;18.244;2022-10-14T08:21:00;100624.53;;;10.76;100.00
19789;BME280;10054;59.332;18.244;2022-10-14T08:23:29;100626.41;;;10.81;100.00
19789;BME280;10054;59.332;18.244;2022-10-14T08:25:59;100620.83;;;10.85;100.00
19789;BME280;10054;59.332;18.244;2022-10-14T08:28:28;100628.09;;;10.89;100.00
19789;BME280;10054;59.332;18.244;2022-10-14T08:30:57;100623.08;;;10.92;100.00
19789;BME280;10054;59.332;18.244;2022-10-14T08:33:26;100624.95;;;10.97;100.00
19789;BME280;10054;59.332;18.244;2022-10-14T08:35:54;100625.88;;;11.03;100.00
19789;BME280;10054;59.332;18.244;2022-10-14T08:38:24;100620.21;;;11.09;100.00
19789;BME280;10054;59.332;18.244;2022-10-14T08:41:02;100624.97;;;11.16;100.00
19789;BME280;10054;59.332;18.244;2022-10-14T08:43:33;100618.91;;;11.22;100.00
19789;BME280;10054;59.332;18.244;2022-10-14T08:48:53;100620.08;;;11.37;100.00
19789;BME280;10054;59.332;18.244;2022-10-14T08:51:22;100615.98;;;11.46;100.00
19789;BME280;10054;59.332;18.244;2022-10-14T08:53:54;100622.55;;;11.53;100.00
19789;BME280;10054;59.332;18.244;2022-10-14T08:56:23;100614.70;;;11.59;100.00
19789;BME280;10054;59.332;18.244;2022-10-14T08:58:53;100621.64;;;11.67;100.00
19789;BME280;10054;59.332;18.244;2022-10-14T09:01:28;100620.11;;;11.70;100.00
19789;BME280;10054;59.332;18.244;2022-10-14T09:04:01;100624.61;;;11.75;100.00
19789;BME280;10054;59.332;18.244;2022-10-14T09:06:31;100622.64;;;11.78;100.00
19789;BME280;10054;59.332;18.244;2022-10-14T09:09:05;100622.81;;;11.82;100.00
19789;BME280;10054;59.332;18.244;2022-10-14T09:11:38;100622.02;;;11.88;100.00
19789;BME280;10054;59.332;18.244;2022-10-14T09:14:09;100618.19;;;11.92;100.00
19789;BME280;10054;59.332;18.244;2022-10-14T09:16:39;100615.61;;;11.97;100.00
19789;BME280;10054;59.332;18.244;2022-10-14T09:19:41;100620.84;;;12.04;100.00
19789;BME280;10054;59.332;18.244;2022-10-14T09:21:53;100614.55;;;12.12;100.00
19789;BME280;10054;59.332;18.244;2022-10-14T09:24:28;100622.54;;;12.18;100.00
19789;BME280;10054;59.332;18.244;2022-10-14T09:32:35;100622.43;;;12.32;100.00
19789;BME280;10054;59.332;18.244;2022-10-14T09:35:20;100625.97;;;12.38;100.00
19789;BME280;10054;59.332;18.244;2022-10-14T09:37:48;100624.16;;;12.52;100.00
19789;BME280;10054;59.332;18.244;2022-10-14T09:40:28;100621.19;;;12.56;100.00
19789;BME280;10054;59.332;18.244;2022-10-14T09:43:03;100621.19;;;12.56;100.00
19789;BME280;10054;59.332;18.244;2022-10-14T09:45:59;100612.30;;;12.57;100.00
19789;BME280;10054;59.332;18.244;2022-10-14T09:48:38;100614.83;;;12.59;100.00
19789;BME280;10054;59.332;18.244;2022-10-14T09:51:08;100618.33;;;12.59;100.00
19789;BME280;10054;59.332;18.244;2022-10-14T09:53:42;100613.19;;;12.69;100.00
19789;BME280;10054;59.332;18.244;2022-10-14T09:56:11;100614.08;;;12.75;100.00
19789;BME280;10054;59.332;18.244;2022-10-14T09:58:52;100610.26;;;12.79;100.00
19789;BME280;10054;59.332;18.244;2022-10-14T10:01:39;100609.16;;;12.76;100.00
19789;BME280;10054;59.332;18.244;2022-10-14T10:03:55;100606.51;;;12.76;100.00
19789;BME280;10054;59.332;18.244;2022-10-14T10:06:27;100612.80;;;12.80;100.00
19789;BME280;10054;59.332;18.244;2022-10-14T10:08:57;100600.77;;;12.82;100.00
19789;BME280;10054;59.332;18.244;2022-10-14T10:11:37;100601.77;;;12.87;100.00
19789;BME280;10054;59.332;18.244;2022-10-14T10:17:11;100600.11;;;12.91;100.00
19789;BME280;10054;59.332;18.244;2022-10-14T10:19:42;100604.41;;;12.87;100.00
19789;BME280;10054;59.332;18.244;2022-10-14T10:27:38;100595.88;;;12.70;100.00
19789;BME280;10054;59.332;18.244;2022-10-14T10:30:25;100592.72;;;12.65;100.00
19789;BME280;10054;59.332;18.244;2022-10-14T10:33:31;100594.77;;;12.62;100.00
19789;BME280;10054;59.332;18.244;2022-10-14T10:35:59;100593.92;;;12.61;100.00
19789;BME280;10054;59.332;18.244;2022-10-14T10:38:49;100590.48;;;12.72;100.00
19789;BME280;10054;59.332;18.244;2022-10-14T10:41:37;100584.52;;;12.81;100.00
19789;BME280;10054;59.332;18.244;2022-10-14T10:46:54;100579.02;;;13.08;100.00
19789;BME280;10054;59.332;18.244;2022-10-14T11:00:31;100573.77;;;13.48;99.18
19789;BME280;10054;59.332;18.244;2022-10-14T11:03:17;100580.77;;;13.49;98.65
19789;BME280;10054;59.332;18.244;2022-10-14T11:05:44;100571.26;;;13.53;98.14
19789;BME280;10054;59.332;18.244;2022-10-14T11:08:23;100579.69;;;13.52;98.11
19789;BME280;10054;59.332;18.244;2022-10-14T11:11:23;100575.83;;;13.51;98.47
19789;BME280;10054;59.332;18.244;2022-10-14T11:25:24;100575.92;;;13.43;95.85
19789;BME280;10054;59.332;18.244;2022-10-14T11:28:10;100580.24;;;13.39;97.71
19789;BME280;10054;59.332;18.244;2022-10-14T11:30:51;100576.64;;;13.40;97.92
19789;BME280;10054;59.332;18.244;2022-10-14T11:33:36;100577.00;;;13.41;98.45
19789;BME280;10054;59.332;18.244;2022-10-14T11:36:30;100575.67;;;13.41;97.91
19789;BME280;10054;59.332;18.244;2022-10-14T11:42:00;100571.09;;;13.32;97.01
19789;BME280;10054;59.332;18.244;2022-10-14T11:44:33;100571.09;;;13.32;97.04
19789;BME280;10054;59.332;18.244;2022-10-14T11:47:06;100567.60;;;13.31;97.56
19789;BME280;10054;59.332;18.244;2022-10-14T11:49:49;100566.89;;;13.35;97.61
19789;BME280;10054;59.332;18.244;2022-10-14T11:52:27;100561.48;;;13.36;96.51
19789;BME280;10054;59.332;18.244;2022-10-14T11:55:05;100559.06;;;13.33;95.52
19789;BME280;10054;59.332;18.244;2022-10-14T11:57:56;100564.95;;;13.31;96.11
19789;BME280;10054;59.332;18.244;2022-10-14T12:00:17;100562.89;;;13.29;96.77
19789;BME280;10054;59.332;18.244;2022-10-14T12:05:54;100561.69;;;13.28;97.19
19789;BME280;10054;59.332;18.244;2022-10-14T12:08:26;100560.11;;;13.25;96.96
19789;BME280;10054;59.332;18.244;2022-10-14T12:11:13;100560.95;;;13.26;97.33
19789;BME280;10054;59.332;18.244;2022-10-14T12:13:48;100559.63;;;13.26;97.05
19789;BME280;10054;59.332;18.244;2022-10-14T12:16:16;100560.11;;;13.25;97.06
19789;BME280;10054;59.332;18.244;2022-10-14T12:18:53;100552.16;;;13.25;97.02
19789;BME280;10054;59.332;18.244;2022-10-14T12:21:20;100548.30;;;13.24;96.74
19789;BME280;10054;59.332;18.244;2022-10-14T12:23:54;100558.03;;;13.18;96.45
19789;BME280;10054;59.332;18.244;2022-10-14T12:28:54;100548.56;;;13.08;95.76
19789;BME280;10054;59.332;18.244;2022-10-14T12:31:33;100556.25;;;13.05;96.25
19789;BME280;10054;59.332;18.244;2022-10-14T12:36:45;100549.23;;;12.99;96.48
19789;BME280;10054;59.332;18.244;2022-10-14T12:42:09;100542.95;;;12.94;97.08
19789;BME280;10054;59.332;18.244;2022-10-14T12:44:46;100535.61;;;12.92;97.26
19789;BME280;10054;59.332;18.244;2022-10-14T12:49:54;100532.81;;;13.12;96.99
19789;BME280;10054;59.332;18.244;2022-10-14T12:52:28;100532.06;;;13.28;96.93
19789;BME280;10054;59.332;18.244;2022-10-14T12:54:59;100529.42;;;13.39;96.07
19789;BME280;10054;59.332;18.244;2022-10-14T12:57:33;100528.95;;;13.45;95.42
19789;BME280;10054;59.332;18.244;2022-10-14T13:02:45;100534.35;;;13.38;94.76
19789;BME280;10054;59.332;18.244;2022-10-14T13:08:24;100533.39;;;13.28;95.07
19789;BME280;10054;59.332;18.244;2022-10-14T13:19:03;100528.06;;;13.23;95.29
19789;BME280;10054;59.332;18.244;2022-10-14T13:24:28;100526.90;;;13.32;96.23
19789;BME280;10054;59.332;18.244;2022-10-14T13:27:21;100517.86;;;13.40;95.87
19789;BME280;10054;59.332;18.244;2022-10-14T13:30:02;100525.00;;;13.51;95.12
19789;BME280;10054;59.332;18.244;2022-10-14T13:38:15;100518.65;;;13.70;93.95
19789;BME280;10054;59.332;18.244;2022-10-14T13:40:51;100515.16;;;13.75;93.72
19789;BME280;10054;59.332;18.244;2022-10-14T13:43:48;100511.19;;;13.75;93.45
19789;BME280;10054;59.332;18.244;2022-10-14T13:46:05;100512.02;;;13.70;92.90
19789;BME280;10054;59.332;18.244;2022-10-14T13:48:39;100511.52;;;13.60;92.31
19789;BME280;10054;59.332;18.244;2022-10-14T13:51:26;100514.51;;;13.49;92.87
19789;BME280;10054;59.332;18.244;2022-10-14T13:57:00;100514.61;;;13.31;93.57
19789;BME280;10054;59.332;18.244;2022-10-14T13:59:29;100512.31;;;13.27;93.99
19789;BME280;10054;59.332;18.244;2022-10-14T14:02:00;100517.36;;;13.24;94.55
19789;BME280;10054;59.332;18.244;2022-10-14T14:04:34;100507.13;;;13.25;95.08
19789;BME280;10054;59.332;18.244;2022-10-14T14:07:05;100510.98;;;13.27;95.30
19789;BME280;10054;59.332;18.244;2022-10-14T14:09:34;100515.69;;;13.29;95.38
19789;BME280;10054;59.332;18.244;2022-10-14T14:12:04;100511.71;;;13.29;95.93
19789;BME280;10054;59.332;18.244;2022-10-14T14:14:40;100514.11;;;13.26;96.35
19789;BME280;10054;59.332;18.244;2022-10-14T14:17:10;100508.09;;;13.24;96.58
19789;BME280;10054;59.332;18.244;2022-10-14T14:19:37;100508.43;;;13.20;97.06
19789;BME280;10054;59.332;18.244;2022-10-14T14:24:50;100506.58;;;13.14;97.70
19789;BME280;10054;59.332;18.244;2022-10-14T14:27:23;100507.53;;;13.13;97.87
19789;BME280;10054;59.332;18.244;2022-10-14T14:29:53;100504.41;;;13.14;98.32
19789;BME280;10054;59.332;18.244;2022-10-14T14:32:25;100501.39;;;13.13;98.33
19789;BME280;10054;59.332;18.244;2022-10-14T14:34:54;100501.50;;;13.11;98.74
19789;BME280;10054;59.332;18.244;2022-10-14T14:37:28;100498.24;;;13.08;99.14
19789;BME280;10054;59.332;18.244;2022-10-14T14:40:12;100502.44;;;13.05;99.71
19789;BME280;10054;59.332;18.244;2022-10-14T14:42:39;100496.53;;;13.01;99.94
19789;BME280;10054;59.332;18.244;2022-10-14T14:45:27;100498.20;;;12.97;100.00
19789;BME280;10054;59.332;18.244;2022-10-14T14:48:04;100494.56;;;12.92;100.00
19789;BME280;10054;59.332;18.244;2022-10-14T14:50:33;100493.95;;;12.89;100.00
19789;BME280;10054;59.332;18.244;2022-10-14T14:53:10;100496.82;;;12.86;100.00